createdAt,value
2018-04-26T00:01:13.449Z,10.50
2018-04-26T00:03:42.749Z,10.60
2018-04-26T00:06:12.133Z,10.60
2018-04-26T00:08:42.803Z,10.60
2018-04-26T00:11:12.883Z,10.50
2018-04-26T00:13:42.063Z,10.40
2018-04-26T00:16:12.335Z,10.40
2018-04-26T00:18:41.444Z,10.40
2018-04-26T00:21:10.722Z,10.40
2018-04-26T00:23:40.686Z,10.30
2018-04-26T00:26:15.194Z,10.20
2018-04-26T00:28:49.503Z,10.20
2018-04-26T00:31:19.438Z,10.30
2018-04-26T00:33:51.817Z,10.20
2018-04-26T00:36:21.307Z,10.10
2018-04-26T00:38:50.665Z,10.10
2018-04-26T00:41:19.726Z,10.20
2018-04-26T00:43:49.568Z,10.20
2018-04-26T00:46:18.560Z,10.10
2018-04-26T00:48:47.946Z,10.20
2018-04-26T00:51:23.994Z,10.10
2018-04-26T00:54:02.375Z,10.10
2018-04-26T00:56:37.788Z,10.10
2018-04-26T00:59:07.170Z,10.10
2018-04-26T01:01:39.916Z,10.10
2018-04-26T01:04:10.306Z,10.10
2018-04-26T01:06:39.733Z,10.10
2018-04-26T01:09:09.466Z,10.20
2018-04-26T01:11:39.568Z,10.20
2018-04-26T01:14:16.035Z,10.10
2018-04-26T01:16:46.308Z,10.20
2018-04-26T01:19:15.397Z,10.10
2018-04-26T01:21:45.035Z,10.00
2018-04-26T01:24:14.206Z,10.10
2018-04-26T01:26:43.216Z,10.10
2018-04-26T01:29:13.126Z,10.00
2018-04-26T01:31:42.039Z,10.00
2018-04-26T01:34:11.548Z,10.00
2018-04-26T01:37:48.636Z,10.10
2018-04-26T01:40:18.047Z,10.10
2018-04-26T01:42:48.628Z,10.00
2018-04-26T01:45:18.673Z,10.00
2018-04-26T01:47:48.144Z,9.90
2018-04-26T01:50:18.018Z,9.90
2018-04-26T01:52:47.390Z,10.00
2018-04-26T01:55:16.625Z,10.00
2018-04-26T01:57:46.059Z,9.90
2018-04-26T02:00:15.571Z,9.90
2018-04-26T02:02:45.435Z,9.90
2018-04-26T02:05:14.939Z,9.90
2018-04-26T02:07:45.058Z,9.80
2018-04-26T02:10:14.853Z,9.80
2018-04-26T02:12:43.939Z,9.80
2018-04-26T02:15:16.387Z,9.80
2018-04-26T02:17:51.585Z,9.70
2018-04-26T02:20:20.854Z,9.70
2018-04-26T02:22:50.887Z,9.60
2018-04-26T02:25:20.117Z,9.70
2018-04-26T02:27:49.847Z,9.60
2018-04-26T02:30:20.644Z,9.60
2018-04-26T02:32:50.847Z,9.60
2018-04-26T02:35:20.964Z,9.70
2018-04-26T02:37:52.380Z,9.60
2018-04-26T02:40:22.341Z,9.70
2018-04-26T02:43:04.086Z,9.80
2018-04-26T02:45:41.415Z,9.70
2018-04-26T02:48:21.480Z,9.70
2018-04-26T02:51:03.727Z,9.80
2018-04-26T02:53:52.637Z,9.80
2018-04-26T02:56:37.272Z,9.90
2018-04-26T02:59:13.815Z,9.90
2018-04-26T03:01:50.361Z,9.90
2018-04-26T03:04:26.288Z,9.90
2018-04-26T03:06:56.814Z,9.90
2018-04-26T03:09:28.343Z,9.90
2018-04-26T03:11:57.464Z,9.90
2018-04-26T03:14:27.322Z,9.90
2018-04-26T03:16:57.393Z,10.00
2018-04-26T03:19:26.605Z,9.90
2018-04-26T03:22:03.727Z,10.00
2018-04-26T03:24:33.843Z,9.90
2018-04-26T03:27:03.823Z,9.80
2018-04-26T03:29:32.805Z,9.90
2018-04-26T03:32:01.792Z,10.00
2018-04-26T03:35:10.420Z,10.10
2018-04-26T03:37:41.953Z,10.10
2018-04-26T03:40:11.314Z,10.00
2018-04-26T03:42:44.090Z,10.00
2018-04-26T03:45:13.809Z,10.00
2018-04-26T03:47:44.020Z,10.10
2018-04-26T03:50:13.711Z,10.10
2018-04-26T03:52:42.838Z,10.10
2018-04-26T03:55:12.718Z,10.00
2018-04-26T03:57:42.250Z,10.00
2018-04-26T04:02:28.255Z,10.00
2018-04-26T04:05:08.275Z,10.00
2018-04-26T04:07:37.458Z,10.00
2018-04-26T04:10:07.137Z,10.00
2018-04-26T04:12:37.510Z,10.00
2018-04-26T04:15:06.907Z,9.90
2018-04-26T04:17:35.989Z,10.00
2018-04-26T04:20:06.210Z,10.00
2018-04-26T04:22:35.661Z,10.00
2018-04-26T04:25:04.620Z,10.00
2018-04-26T04:27:33.687Z,10.00
2018-04-26T04:30:03.816Z,10.00
2018-04-26T04:32:35.112Z,10.00
2018-04-26T04:35:04.376Z,10.00
2018-04-26T04:37:34.607Z,9.90
2018-04-26T04:40:05.271Z,9.20
2018-04-26T04:42:34.826Z,9.10
2018-04-26T04:45:12.003Z,8.90
2018-04-26T04:47:51.467Z,8.70
2018-04-26T04:50:30.886Z,8.70
2018-04-26T04:53:09.496Z,8.70
2018-04-26T04:55:48.813Z,8.80
2018-04-26T04:58:25.327Z,8.80
2018-04-26T05:01:02.422Z,9.00
2018-04-26T05:03:39.879Z,9.10
2018-04-26T05:06:08.998Z,9.20
2018-04-26T05:08:37.940Z,9.30
2018-04-26T05:11:07.863Z,9.40
2018-04-26T05:13:37.546Z,9.40
2018-04-26T05:16:07.482Z,9.50
2018-04-26T05:18:37.405Z,9.50
2018-04-26T05:21:09.509Z,9.50
2018-04-26T05:23:44.444Z,9.60
2018-04-26T05:26:21.233Z,9.70
2018-04-26T05:28:50.491Z,9.60
2018-04-26T05:31:19.703Z,9.80
2018-04-26T05:33:48.932Z,9.80
2018-04-26T05:36:19.777Z,9.70
2018-04-26T05:38:49.349Z,9.80
2018-04-26T05:41:18.568Z,9.80
2018-04-26T05:43:48.192Z,9.90
2018-04-26T05:46:17.972Z,10.10
2018-04-26T05:48:47.722Z,10.10
2018-04-26T05:51:19.916Z,10.00
2018-04-26T05:53:51.325Z,9.90
2018-04-26T05:56:20.560Z,10.00
2018-04-26T05:58:50.366Z,10.10
2018-04-26T06:01:20.855Z,10.40
2018-04-26T06:03:50.179Z,10.40
2018-04-26T06:06:23.710Z,10.40
2018-04-26T06:08:52.970Z,10.40
2018-04-26T06:11:22.117Z,10.50
2018-04-26T06:13:51.621Z,10.70
2018-04-26T06:16:28.073Z,10.80
2018-04-26T06:18:58.666Z,10.60
2018-04-26T06:21:28.166Z,10.60
2018-04-26T06:23:57.335Z,10.70
2018-04-26T06:26:26.644Z,10.70
2018-04-26T06:28:56.100Z,10.60
2018-04-26T06:31:25.929Z,10.60
2018-04-26T06:33:55.817Z,10.80
2018-04-26T06:36:25.487Z,10.80
2018-04-26T06:38:54.723Z,10.80
2018-04-26T06:41:24.314Z,10.90
2018-04-26T06:43:54.145Z,11.00
2018-04-26T06:46:27.809Z,11.00
2018-04-26T06:49:02.536Z,10.90
2018-04-26T06:51:32.837Z,10.90
2018-04-26T06:54:02.063Z,10.90
2018-04-26T06:56:31.314Z,11.00
2018-04-26T06:59:02.736Z,11.00
2018-04-26T07:01:32.446Z,11.00
2018-04-26T07:04:03.393Z,11.20
2018-04-26T07:06:35.703Z,11.40
2018-04-26T07:09:07.884Z,11.50
2018-04-26T07:11:38.605Z,11.70
2018-04-26T07:14:08.075Z,11.70
2018-04-26T07:16:38.144Z,11.40
2018-04-26T07:19:09.807Z,11.30
2018-04-26T07:21:45.351Z,11.50
2018-04-26T07:24:20.945Z,12.20
2018-04-26T07:26:50.606Z,12.20
2018-04-26T07:29:22.463Z,11.80
2018-04-26T07:31:53.567Z,12.00
2018-04-26T07:34:23.128Z,12.50
2018-04-26T07:37:18.401Z,13.50
2018-04-26T07:39:55.309Z,13.10
2018-04-26T07:42:25.253Z,12.70
2018-04-26T07:44:54.871Z,12.50
2018-04-26T07:47:24.480Z,12.60
2018-04-26T07:49:54.690Z,13.30
2018-04-26T07:52:24.207Z,13.20
2018-04-26T07:54:53.332Z,12.60
2018-04-26T07:57:22.663Z,12.20
2018-04-26T07:59:52.463Z,12.30
2018-04-26T08:02:24.504Z,12.20
2018-04-26T08:04:54.159Z,12.30
2018-04-26T08:07:29.058Z,12.30
2018-04-26T08:10:10.706Z,12.60
2018-04-26T08:12:40.517Z,14.10
2018-04-26T08:15:09.959Z,14.80
2018-04-26T08:17:40.001Z,13.80
2018-04-26T08:20:09.275Z,13.80
2018-04-26T08:22:54.052Z,14.30
2018-04-26T08:25:39.073Z,14.30
2018-04-26T08:28:08.833Z,14.90
2018-04-26T08:30:38.088Z,15.30
2018-04-26T08:33:08.088Z,15.80
2018-04-26T08:35:39.551Z,15.70
2018-04-26T08:38:11.045Z,15.70
2018-04-26T08:40:40.329Z,15.40
2018-04-26T08:43:09.695Z,15.70
2018-04-26T08:45:39.081Z,16.10
2018-04-26T08:48:08.940Z,16.50
2018-04-26T08:50:41.897Z,18.10
2018-04-26T08:53:12.917Z,17.50
2018-04-26T08:55:43.302Z,17.50
2018-04-26T08:58:13.439Z,16.70
2018-04-26T09:00:48.758Z,16.60
2018-04-26T09:03:23.368Z,16.60
2018-04-26T09:05:59.047Z,17.40
2018-04-26T09:08:32.258Z,18.00
2018-04-26T09:11:01.614Z,18.40
2018-04-26T09:13:32.887Z,17.30
2018-04-26T09:16:03.699Z,18.20
2018-04-26T09:18:32.915Z,18.10
2018-04-26T09:21:04.629Z,18.30
2018-04-26T09:23:34.166Z,18.30
2018-04-26T09:26:11.364Z,16.70
2018-04-26T09:28:41.335Z,16.60
2018-04-26T09:31:13.553Z,15.70
2018-04-26T09:33:42.976Z,15.70
2018-04-26T09:36:16.185Z,15.80
2018-04-26T09:38:51.578Z,15.30
2018-04-26T09:41:36.576Z,14.80
2018-04-26T09:44:07.215Z,14.60
2018-04-26T09:46:37.438Z,16.60
2018-04-26T09:49:10.940Z,16.60
2018-04-26T09:51:40.751Z,17.30
2018-04-26T09:54:13.226Z,16.50
2018-04-26T09:57:12.320Z,16.30
2018-04-26T09:59:42.688Z,16.30
2018-04-26T10:02:13.930Z,16.60
2018-04-26T10:04:52.519Z,16.40
2018-04-26T10:07:34.759Z,16.40
2018-04-26T10:10:05.671Z,16.20
2018-04-26T10:12:37.539Z,16.10
2018-04-26T10:15:14.927Z,16.10
2018-04-26T10:17:53.089Z,16.20
2018-04-26T10:20:24.740Z,16.90
2018-04-26T10:22:55.187Z,18.40
2018-04-26T10:25:27.591Z,18.40
2018-04-26T10:28:10.444Z,17.30
2018-04-26T10:30:55.312Z,16.70
2018-04-26T10:33:33.280Z,16.40
2018-04-26T10:36:03.613Z,16.10
2018-04-26T10:38:33.150Z,16.10
2018-04-26T10:41:03.417Z,15.60
2018-04-26T10:43:34.144Z,15.40
2018-04-26T10:46:08.063Z,15.70
2018-04-26T10:48:43.620Z,15.70
2018-04-26T10:51:15.111Z,14.90
2018-04-26T10:53:45.751Z,14.60
2018-04-26T10:56:15.886Z,14.30
2018-04-26T10:58:45.950Z,14.50
2018-04-26T11:01:14.986Z,14.50
2018-04-26T11:03:44.713Z,16.10
2018-04-26T11:06:14.250Z,16.90
2018-04-26T11:08:44.028Z,18.90
2018-04-26T11:11:14.128Z,19.60
2018-04-26T11:13:43.667Z,19.50
2018-04-26T11:16:13.139Z,20.10
2018-04-26T11:18:55.893Z,18.60
2018-04-26T11:21:30.887Z,18.60
2018-04-26T11:24:01.066Z,17.80
2018-04-26T11:26:35.490Z,17.30
2018-04-26T11:29:10.442Z,18.10
2018-04-26T11:31:42.354Z,18.20
2018-04-26T11:34:22.382Z,18.30
2018-04-26T11:36:57.907Z,17.90
2018-04-26T11:39:40.197Z,17.90
2018-04-26T11:42:20.108Z,17.70
2018-04-26T11:44:59.302Z,16.80
2018-04-26T11:47:40.022Z,16.20
2018-04-26T11:50:15.611Z,16.10
2018-04-26T11:52:45.750Z,17.00
2018-04-26T11:55:21.013Z,17.20
2018-04-26T11:57:52.721Z,17.00
2018-04-26T12:00:22.028Z,16.50
2018-04-26T12:02:58.089Z,17.10
2018-04-26T12:05:28.162Z,19.20
2018-04-26T12:07:57.857Z,20.40
2018-04-26T12:10:27.033Z,20.30
2018-04-26T12:13:02.040Z,22.10
2018-04-26T12:15:32.804Z,22.80
2018-04-26T12:18:04.893Z,22.60
2018-04-26T12:20:41.971Z,22.60
2018-04-26T12:23:13.202Z,22.90
2018-04-26T12:25:53.047Z,22.60
2018-04-26T12:28:22.195Z,22.70
2018-04-26T12:30:58.147Z,21.70
2018-04-26T12:33:27.903Z,19.30
2018-04-26T12:35:57.260Z,19.70
2018-04-26T12:38:32.335Z,21.00
2018-04-26T12:41:04.413Z,21.80
2018-04-26T12:43:33.840Z,21.40
2018-04-26T12:46:03.364Z,19.80
2018-04-26T12:48:33.195Z,18.20
2018-04-26T12:51:03.577Z,18.30
2018-04-26T12:53:46.234Z,19.10
2018-04-26T12:56:15.969Z,20.00
2018-04-26T12:58:45.234Z,21.30
2018-04-26T13:01:14.650Z,22.00
2018-04-26T13:03:44.484Z,22.00
2018-04-26T13:06:16.903Z,22.50
2018-04-26T13:08:50.213Z,23.00
2018-04-26T13:11:19.650Z,22.90
2018-04-26T13:13:49.435Z,22.00
2018-04-26T13:16:21.567Z,22.00
2018-04-26T13:19:03.778Z,22.30
2018-04-26T13:21:38.973Z,22.80
2018-04-26T13:24:13.788Z,22.90
2018-04-26T13:26:44.488Z,20.70
2018-04-26T13:29:13.928Z,20.60
2018-04-26T13:31:54.576Z,18.90
2018-04-26T13:34:41.250Z,18.60
2018-04-26T13:37:11.277Z,19.30
2018-04-26T13:39:40.723Z,20.20
2018-04-26T13:42:11.362Z,20.90
2018-04-26T13:44:41.352Z,21.70
2018-04-26T13:47:11.945Z,19.50
2018-04-26T13:49:41.839Z,18.30
2018-04-26T13:52:11.061Z,18.30
2018-04-26T13:54:44.398Z,17.80
2018-04-26T13:57:13.909Z,17.40
2018-04-26T13:59:45.845Z,17.30
2018-04-26T14:02:15.165Z,17.30
2018-04-26T14:04:44.360Z,17.50
2018-04-26T14:07:14.182Z,17.60
2018-04-26T14:09:43.926Z,17.60
2018-04-26T14:12:13.374Z,17.30
2018-04-26T14:14:43.610Z,17.00
2018-04-26T14:17:12.851Z,16.90
2018-04-26T14:19:47.374Z,16.70
2018-04-26T14:22:23.100Z,16.90
2018-04-26T14:24:53.099Z,16.90
2018-04-26T14:27:22.367Z,17.30
2018-04-26T14:29:51.553Z,17.30
2018-04-26T14:32:21.729Z,16.50
2018-04-26T14:34:50.955Z,16.50
2018-04-26T14:37:20.574Z,16.60
2018-04-26T14:39:50.328Z,16.70
2018-04-26T14:42:19.369Z,16.80
2018-04-26T14:44:49.009Z,17.10
2018-04-26T14:47:23.546Z,17.20
2018-04-26T14:49:56.963Z,17.20
2018-04-26T14:52:26.263Z,17.20
2018-04-26T14:54:59.672Z,16.70
2018-04-26T14:57:29.014Z,16.60
2018-04-26T14:59:58.315Z,16.70
2018-04-26T15:02:29.108Z,16.50
2018-04-26T15:04:59.610Z,16.80
2018-04-26T15:07:29.085Z,16.80
2018-04-26T15:10:04.020Z,16.60
2018-04-26T15:12:39.243Z,16.50
2018-04-26T15:15:15.567Z,16.30
2018-04-26T15:17:45.083Z,16.30
2018-04-26T15:20:14.783Z,16.20
2018-04-26T15:22:44.380Z,15.90
2018-04-26T15:25:14.238Z,16.10
2018-04-26T15:27:44.143Z,16.00
2018-04-26T15:30:16.290Z,15.40
2018-04-26T15:32:45.774Z,15.10
2018-04-26T15:35:18.232Z,15.10
2018-04-26T15:37:47.868Z,15.30
2018-04-26T15:40:17.420Z,15.40
2018-04-26T15:42:46.728Z,15.30
2018-04-26T15:45:16.138Z,15.30
2018-04-26T15:47:46.313Z,15.30
2018-04-26T15:50:24.446Z,15.30
2018-04-26T15:53:05.401Z,15.40
2018-04-26T15:55:45.850Z,15.30
2018-04-26T15:58:23.879Z,15.50
2018-04-26T16:01:10.040Z,15.50
2018-04-26T16:05:30.093Z,15.60
2018-04-26T16:08:18.944Z,15.30
2018-04-26T16:11:08.554Z,15.30
2018-04-26T16:14:39.729Z,15.30
2018-04-26T16:19:28.813Z,15.20
2018-04-26T16:22:15.654Z,15.20
2018-04-26T16:24:57.663Z,15.20
2018-04-26T16:28:16.537Z,15.00
2018-04-26T16:31:04.528Z,14.90
2018-04-26T16:33:49.897Z,14.50
2018-04-26T16:38:34.233Z,14.40
2018-04-26T16:41:09.902Z,14.40
2018-04-26T16:43:40.730Z,14.50
2018-04-26T16:46:16.982Z,14.70
2018-04-26T16:48:54.230Z,14.80
2018-04-26T16:51:29.516Z,15.00
2018-04-26T16:54:10.628Z,15.30
2018-04-26T16:56:42.859Z,15.30
2018-04-26T16:59:15.463Z,15.30
2018-04-26T17:01:53.346Z,15.60
2018-04-26T17:04:43.172Z,15.50
2018-04-26T17:07:27.628Z,15.80
2018-04-26T17:09:57.543Z,16.00
2018-04-26T17:12:29.190Z,16.00
2018-04-26T17:15:00.584Z,15.80
2018-04-26T17:17:47.002Z,15.60
2018-04-26T17:20:23.866Z,15.50
2018-04-26T17:23:03.776Z,15.30
2018-04-26T17:25:35.318Z,15.00
2018-04-26T17:28:04.941Z,15.00
2018-04-26T17:30:48.617Z,15.10
2018-04-26T17:33:40.463Z,15.20
2018-04-26T17:36:10.709Z,15.30
2018-04-26T17:38:40.314Z,15.30
2018-04-26T17:41:09.689Z,15.30
2018-04-26T17:43:40.949Z,15.10
2018-04-26T17:46:10.776Z,15.00
2018-04-26T17:48:40.724Z,15.10
2018-04-26T17:51:09.890Z,15.10
2018-04-26T17:53:39.621Z,15.10
2018-04-26T17:56:09.529Z,15.20
2018-04-26T17:58:45.089Z,15.30
2018-04-26T18:01:20.890Z,15.40
2018-04-26T18:04:01.473Z,15.20
2018-04-26T18:06:40.063Z,15.10
2018-04-26T18:09:22.264Z,15.10
2018-04-26T18:11:59.600Z,15.10
2018-04-26T18:14:32.494Z,15.10
2018-04-26T18:17:22.006Z,15.10
2018-04-26T18:23:25.079Z,14.80
2018-04-26T18:26:03.391Z,14.80
2018-04-26T18:28:37.514Z,14.80
2018-04-26T18:31:11.174Z,14.80
2018-04-26T18:33:49.739Z,14.70
2018-04-26T18:36:22.770Z,14.80
2018-04-26T18:38:54.679Z,14.80
2018-04-26T18:41:45.353Z,14.80
2018-04-26T18:44:29.333Z,14.70
2018-04-26T18:47:15.628Z,14.70
2018-04-26T18:49:53.196Z,14.70
2018-04-26T18:52:36.266Z,14.60
2018-04-26T18:55:16.730Z,14.60
2018-04-26T18:58:05.249Z,14.50
2018-04-26T19:00:38.404Z,14.40
2018-04-26T19:03:18.194Z,14.50
2018-04-26T19:05:50.736Z,14.40
2018-04-26T19:08:26.627Z,14.20
2018-04-26T19:11:15.639Z,14.30
2018-04-26T19:13:52.092Z,14.30
2018-04-26T19:16:26.012Z,14.20
2018-04-26T19:18:59.382Z,14.10
2018-04-26T19:21:31.565Z,14.10
2018-04-26T19:24:07.806Z,14.20
2018-04-26T19:26:41.982Z,14.00
2018-04-26T19:29:14.869Z,14.00
2018-04-26T19:31:49.973Z,13.90
2018-04-26T19:34:21.693Z,14.00
2018-04-26T19:36:54.729Z,14.10
2018-04-26T19:39:35.423Z,14.10
2018-04-26T19:42:08.000Z,13.90
2018-04-26T19:44:43.251Z,13.90
2018-04-26T19:47:15.953Z,14.00
2018-04-26T19:49:50.098Z,13.90
2018-04-26T19:53:13.389Z,13.90
2018-04-26T19:56:20.980Z,14.00
2018-04-26T19:59:16.689Z,13.90
2018-04-26T20:02:16.974Z,13.80
2018-04-26T20:06:31.786Z,13.70
2018-04-26T20:09:05.250Z,13.80
2018-04-26T20:11:50.640Z,13.80
2018-04-26T20:14:20.477Z,13.80
2018-04-26T20:17:05.749Z,13.80
2018-04-26T20:20:12.362Z,13.70
2018-04-26T20:22:52.897Z,13.70
2018-04-26T20:25:37.013Z,13.60
2018-04-26T20:28:27.420Z,13.60
2018-04-26T20:31:10.508Z,13.60
2018-04-26T20:33:41.366Z,13.50
2018-04-26T20:36:33.976Z,13.50
2018-04-26T20:39:13.488Z,13.50
2018-04-26T20:41:51.661Z,13.40
2018-04-26T20:44:32.204Z,13.10
2018-04-26T20:47:15.649Z,13.10
2018-04-26T20:49:53.982Z,13.10
2018-04-26T20:52:26.641Z,13.20
2018-04-26T20:55:06.353Z,13.10
2018-04-26T20:57:36.354Z,13.00
2018-04-26T21:00:14.287Z,12.90
2018-04-26T21:02:47.799Z,12.90
2018-04-26T21:05:19.619Z,12.90
2018-04-26T21:07:57.719Z,12.80
2018-04-26T21:10:27.770Z,12.90
2018-04-26T21:13:01.789Z,13.20
2018-04-26T21:15:42.180Z,13.10
2018-04-26T21:18:25.883Z,13.10
2018-04-26T21:20:57.961Z,13.00
2018-04-26T21:23:27.494Z,13.10
2018-04-26T21:26:11.177Z,12.80
2018-04-26T21:28:41.708Z,12.80
2018-04-26T21:31:12.185Z,12.70
2018-04-26T21:33:42.534Z,12.50
2018-04-26T21:36:11.881Z,12.40
2018-04-26T21:38:41.256Z,12.30
2018-04-26T21:41:10.594Z,12.20
2018-04-26T21:43:40.277Z,12.10
2018-04-26T21:46:09.573Z,12.00
2018-04-26T21:48:45.376Z,11.80
2018-04-26T21:51:24.603Z,11.80
2018-04-26T21:54:02.455Z,11.70
2018-04-26T21:56:46.791Z,11.70
2018-04-26T21:59:25.408Z,11.60
2018-04-26T22:02:04.685Z,11.60
2018-04-26T22:04:34.966Z,11.50
2018-04-26T22:07:09.984Z,11.40
2018-04-26T22:09:49.588Z,11.40
2018-04-26T22:12:21.472Z,11.40
2018-04-26T22:15:05.255Z,11.20
2018-04-26T22:17:39.622Z,11.20
2018-04-26T22:20:09.439Z,11.20
2018-04-26T22:22:39.982Z,11.10
2018-04-26T22:25:09.309Z,11.10
2018-04-26T22:27:39.900Z,11.10
2018-04-26T22:30:09.523Z,11.00
2018-04-26T22:32:38.887Z,11.00
2018-04-26T22:35:08.755Z,11.00
2018-04-26T22:37:38.881Z,11.00
2018-04-26T22:40:16.476Z,11.00
2018-04-26T22:42:49.306Z,11.00
2018-04-26T22:45:19.007Z,11.00
2018-04-26T22:47:48.867Z,11.00
2018-04-26T22:50:18.319Z,11.00
2018-04-26T22:52:49.153Z,10.90
2018-04-26T22:55:18.488Z,10.80
2018-04-26T22:57:48.073Z,10.60
2018-04-26T23:00:17.519Z,10.50
2018-04-26T23:02:46.718Z,10.50
2018-04-26T23:05:24.987Z,10.40
2018-04-26T23:07:55.710Z,10.20
2018-04-26T23:10:25.161Z,10.20
2018-04-26T23:12:55.438Z,10.10
2018-04-26T23:15:25.321Z,10.10
2018-04-26T23:17:57.138Z,10.00
2018-04-26T23:20:26.292Z,10.00
2018-04-26T23:22:56.059Z,9.90
2018-04-26T23:25:25.289Z,9.90
2018-04-26T23:27:57.357Z,9.90
2018-04-26T23:30:29.013Z,9.90
2018-04-26T23:33:00.692Z,9.90
2018-04-26T23:35:37.478Z,9.90
2018-04-26T23:38:14.706Z,9.80
2018-04-26T23:40:54.694Z,9.80
2018-04-26T23:43:29.745Z,9.70
2018-04-26T23:46:06.246Z,9.70
2018-04-26T23:48:41.644Z,9.70
2018-04-26T23:51:12.254Z,9.80
2018-04-26T23:53:42.182Z,9.80
2018-04-26T23:56:35.196Z,9.70
2018-04-26T23:59:15.424Z,9.80
